Time;durP1;ratioP1;P1;durP2;ratioP2;P2;SDS_P1;SDS_P2;PMS_P1;PMS_P2;Temp;Humidity;BMP_temperature;BMP_pressure;BME280_temperature;BME280_humidity;BME280_pressure;Samples;Min_cycle;Max_cycle;Signal;HPM_P1;HPM_P2
2023/10/24 00:01:10;;;;;;;8.85;3.60;;;;;;;;;;5021383;23;20076;-82
2023/10/24 00:03:35;;;;;;;12.52;4.03;;;;;;;;;;5032218;28;20124;-81
2023/10/24 00:06:02;;;;;;;7.93;3.75;;;;;;;;;;5035232;28;20013;-81
2023/10/24 00:08:28;;;;;;;12.00;3.90;;;;;;;;;;5035558;28;20370;-81
2023/10/24 00:11:01;;;;;;;14.70;3.58;;;;;;;;;;5033816;28;20113;-81
2023/10/24 00:13:26;;;;;;;8.32;3.50;;;;;;;;;;5009772;28;20041;-81
2023/10/24 00:15:51;;;;;;;6.82;3.78;;;;;;;;;;5026695;28;20030;-81
2023/10/24 00:18:17;;;;;;;13.05;3.72;;;;;;;;;;5026908;28;20040;-81
2023/10/24 00:20:42;;;;;;;4.45;3.05;;;;;;;;;;5028888;28;20144;-81
2023/10/24 00:23:07;;;;;;;10.10;3.67;;;;;;;;;;5011311;28;20162;-81
2023/10/24 00:25:33;;;;;;;9.68;3.72;;;;;;;;;;5029072;28;20033;-82
2023/10/24 00:27:59;;;;;;;9.30;3.15;;;;;;;;;;5012164;28;20121;-81
2023/10/24 00:30:24;;;;;;;23.95;3.85;;;;;;;;;;5009267;28;20493;-81
2023/10/24 00:32:50;;;;;;;13.10;3.80;;;;;;;;;;5023835;28;20027;-81
2023/10/24 00:35:17;;;;;;;12.00;3.42;;;;;;;;;;5011854;28;20029;-81
2023/10/24 00:37:42;;;;;;;16.50;3.88;;;;;;;;;;5030525;28;20048;-81
2023/10/24 00:40:08;;;;;;;10.13;3.45;;;;;;;;;;4992220;28;20482;-81
2023/10/24 00:42:33;;;;;;;13.15;3.17;;;;;;;;;;5005596;28;20044;-81
2023/10/24 00:44:59;;;;;;;18.52;2.85;;;;;;;;;;5011331;28;20493;-82
2023/10/24 00:47:24;;;;;;;16.42;2.83;;;;;;;;;;5014114;28;20035;-81
2023/10/24 00:49:51;;;;;;;18.10;2.90;;;;;;;;;;5007302;28;20026;-80
2023/10/24 00:52:17;;;;;;;14.65;2.67;;;;;;;;;;5008055;28;20412;-81
2023/10/24 00:54:42;;;;;;;16.80;3.15;;;;;;;;;;5016277;28;20030;-82
2023/10/24 00:57:11;;;;;;;32.42;3.75;;;;;;;;;;4993295;28;20022;-82
2023/10/24 00:59:39;;;;;;;11.63;3.00;;;;;;;;;;4994916;28;20025;-82
2023/10/24 01:02:04;;;;;;;6.15;3.22;;;;;;;;;;4989727;28;20038;-81
2023/10/24 01:04:30;;;;;;;17.40;2.97;;;;;;;;;;4997950;28;20450;-80
2023/10/24 01:06:55;;;;;;;10.23;2.95;;;;;;;;;;5009959;28;21010;-81
2023/10/24 01:09:20;;;;;;;18.20;3.15;;;;;;;;;;4989480;28;20034;-82
2023/10/24 01:11:49;;;;;;;5.50;2.92;;;;;;;;;;4991858;28;20024;-81
2023/10/24 01:14:15;;;;;;;4.55;2.90;;;;;;;;;;5003739;28;20539;-81
2023/10/24 01:16:43;;;;;;;6.07;2.70;;;;;;;;;;5014876;28;20026;-82
2023/10/24 01:19:10;;;;;;;9.13;3.45;;;;;;;;;;4995403;28;20155;-80
2023/10/24 01:21:36;;;;;;;6.57;3.83;;;;;;;;;;5012534;28;20057;-80
2023/10/24 01:24:02;;;;;;;19.65;3.75;;;;;;;;;;5012488;28;20018;-83
2023/10/24 01:26:27;;;;;;;15.48;4.50;;;;;;;;;;5011627;28;20574;-82
2023/10/24 01:28:53;;;;;;;10.85;3.25;;;;;;;;;;5006884;28;20041;-80
2023/10/24 01:31:18;;;;;;;20.00;4.50;;;;;;;;;;5007955;28;20108;-80
2023/10/24 01:33:43;;;;;;;16.55;4.82;;;;;;;;;;5011193;28;20033;-82
2023/10/24 01:36:09;;;;;;;10.57;3.97;;;;;;;;;;4991086;28;20118;-81
2023/10/24 01:38:34;;;;;;;20.52;3.72;;;;;;;;;;5010246;28;20474;-82
2023/10/24 01:41:00;;;;;;;22.70;3.30;;;;;;;;;;5015337;28;20054;-81
2023/10/24 01:43:25;;;;;;;19.88;3.10;;;;;;;;;;4993487;28;20445;-81
2023/10/24 01:45:50;;;;;;;9.13;3.53;;;;;;;;;;5013592;28;20136;-82
2023/10/24 01:48:15;;;;;;;21.00;3.45;;;;;;;;;;5008881;28;20026;-81
2023/10/24 01:50:41;;;;;;;8.25;3.03;;;;;;;;;;5010717;28;20297;-82
2023/10/24 01:53:06;;;;;;;19.10;3.42;;;;;;;;;;5006936;28;20465;-80
2023/10/24 01:55:31;;;;;;;8.98;2.97;;;;;;;;;;4996510;28;20030;-81
2023/10/24 01:57:57;;;;;;;14.23;3.63;;;;;;;;;;5009443;28;20038;-82
2023/10/24 02:00:22;;;;;;;13.90;3.97;;;;;;;;;;5008371;28;20030;-79
2023/10/24 02:02:48;;;;;;;7.60;3.15;;;;;;;;;;5006424;28;20056;-83
2023/10/24 02:05:14;;;;;;;15.90;4.10;;;;;;;;;;5014907;28;20326;-83
2023/10/24 02:07:39;;;;;;;16.90;4.18;;;;;;;;;;5011908;28;20087;-82
2023/10/24 02:10:05;;;;;;;10.43;3.55;;;;;;;;;;5015580;28;20497;-82
2023/10/24 02:12:30;;;;;;;10.25;3.33;;;;;;;;;;5007047;28;20049;-81
2023/10/24 02:14:56;;;;;;;22.63;4.22;;;;;;;;;;4987849;28;20394;-81
2023/10/24 02:17:22;;;;;;;17.60;3.88;;;;;;;;;;4995490;28;20133;-83
2023/10/24 02:19:47;;;;;;;12.18;3.67;;;;;;;;;;5009375;28;20080;-82
2023/10/24 02:22:13;;;;;;;16.38;4.03;;;;;;;;;;5009942;28;20103;-82
2023/10/24 02:24:38;;;;;;;20.25;3.72;;;;;;;;;;5010956;28;20271;-81
2023/10/24 02:27:04;;;;;;;14.23;4.00;;;;;;;;;;4992653;28;20030;-80
2023/10/24 02:29:33;;;;;;;21.63;3.97;;;;;;;;;;5014738;28;20068;-81
2023/10/24 02:31:59;;;;;;;6.43;3.03;;;;;;;;;;5006285;28;20398;-80
2023/10/24 02:34:24;;;;;;;9.88;3.45;;;;;;;;;;5009380;28;20049;-81
2023/10/24 02:36:49;;;;;;;11.65;3.67;;;;;;;;;;4999171;28;20113;-82
2023/10/24 02:39:14;;;;;;;12.60;3.55;;;;;;;;;;5013975;28;20030;-82
2023/10/24 02:41:40;;;;;;;23.33;3.92;;;;;;;;;;5015325;28;20436;-82
2023/10/24 02:44:05;;;;;;;7.68;4.03;;;;;;;;;;5013210;28;20038;-82
2023/10/24 02:46:30;;;;;;;8.90;3.55;;;;;;;;;;5015537;28;20050;-80
2023/10/24 02:48:56;;;;;;;15.48;4.13;;;;;;;;;;5013972;28;20081;-82
2023/10/24 02:51:21;;;;;;;12.40;3.78;;;;;;;;;;5013891;28;20054;-82
2023/10/24 02:53:47;;;;;;;10.00;3.72;;;;;;;;;;5015309;28;20037;-82
2023/10/24 02:56:13;;;;;;;16.05;3.55;;;;;;;;;;5013193;28;20556;-83
2023/10/24 02:58:38;;;;;;;14.35;3.85;;;;;;;;;;4994788;28;20037;-82
2023/10/24 03:01:04;;;;;;;10.15;3.15;;;;;;;;;;5014188;28;20136;-81
2023/10/24 03:03:30;;;;;;;25.13;4.15;;;;;;;;;;5015338;28;20038;-83
2023/10/24 03:05:55;;;;;;;11.25;3.78;;;;;;;;;;5016340;28;20473;-80
2023/10/24 03:08:20;;;;;;;15.23;3.92;;;;;;;;;;5006414;28;20034;-81
2023/10/24 03:10:46;;;;;;;12.20;4.00;;;;;;;;;;5012752;28;20065;-79
2023/10/24 03:13:11;;;;;;;22.10;3.58;;;;;;;;;;5027507;28;20125;-80
2023/10/24 03:15:36;;;;;;;20.15;4.10;;;;;;;;;;5031026;28;20037;-81
2023/10/24 03:18:02;;;;;;;16.05;3.95;;;;;;;;;;5033532;28;20017;-81
2023/10/24 03:20:27;;;;;;;22.55;4.22;;;;;;;;;;5031038;28;20045;-82
2023/10/24 03:22:54;;;;;;;13.10;4.15;;;;;;;;;;5029727;28;20057;-81
2023/10/24 03:25:20;;;;;;;8.30;3.38;;;;;;;;;;5028896;28;20165;-81
2023/10/24 03:27:45;;;;;;;10.10;3.80;;;;;;;;;;5032961;28;20045;-80
2023/10/24 03:30:11;;;;;;;35.08;4.22;;;;;;;;;;5016418;28;20029;-81
2023/10/24 03:32:36;;;;;;;18.50;4.10;;;;;;;;;;5011356;28;20034;-82
2023/10/24 03:35:01;;;;;;;22.33;4.47;;;;;;;;;;5012031;28;20040;-82
2023/10/24 03:37:27;;;;;;;29.77;4.40;;;;;;;;;;5023772;28;20132;-81
2023/10/24 03:39:52;;;;;;;19.42;3.70;;;;;;;;;;5010026;28;20056;-81
2023/10/24 03:42:18;;;;;;;17.02;4.68;;;;;;;;;;5010650;28;20034;-80
2023/10/24 03:44:43;;;;;;;21.52;4.43;;;;;;;;;;5015645;28;20053;-80
2023/10/24 03:47:08;;;;;;;12.60;4.25;;;;;;;;;;5010971;28;20030;-82
2023/10/24 03:49:34;;;;;;;11.45;3.63;;;;;;;;;;5005512;28;20046;-83
2023/10/24 03:51:59;;;;;;;13.60;3.30;;;;;;;;;;5011849;28;20199;-80
2023/10/24 03:54:26;;;;;;;18.65;3.47;;;;;;;;;;5014419;28;20056;-83
2023/10/24 03:56:51;;;;;;;15.15;4.35;;;;;;;;;;5014757;28;20160;-81
2023/10/24 03:59:16;;;;;;;18.73;3.53;;;;;;;;;;5015919;28;20397;-80
2023/10/24 04:01:41;;;;;;;25.05;3.63;;;;;;;;;;5018864;28;20579;-81
2023/10/24 04:04:07;;;;;;;14.88;3.40;;;;;;;;;;5007977;28;20060;-81
2023/10/24 04:06:36;;;;;;;22.83;4.10;;;;;;;;;;5009071;28;20567;-80
2023/10/24 04:09:05;;;;;;;13.20;3.70;;;;;;;;;;5024895;28;20080;-80
2023/10/24 04:11:32;;;;;;;26.27;3.83;;;;;;;;;;5024926;28;20067;-81
2023/10/24 04:13:58;;;;;;;16.50;3.25;;;;;;;;;;5029489;28;20064;-81
2023/10/24 04:16:24;;;;;;;23.67;3.70;;;;;;;;;;5005600;28;20037;-80
2023/10/24 04:18:49;;;;;;;25.98;4.18;;;;;;;;;;5018974;28;20030;-79
2023/10/24 04:21:17;;;;;;;22.27;3.80;;;;;;;;;;5013942;28;20032;-79
2023/10/24 04:23:43;;;;;;;26.08;4.03;;;;;;;;;;4995526;28;20029;-81
2023/10/24 04:26:09;;;;;;;18.25;3.72;;;;;;;;;;4999195;28;20092;-80
2023/10/24 04:28:35;;;;;;;22.30;4.30;;;;;;;;;;5011082;28;20029;-81
2023/10/24 04:31:00;;;;;;;13.18;3.63;;;;;;;;;;4999913;28;20076;-81
2023/10/24 04:33:26;;;;;;;24.73;4.28;;;;;;;;;;5019929;28;20088;-82
2023/10/24 04:35:51;;;;;;;24.90;4.25;;;;;;;;;;5007719;28;20025;-81
2023/10/24 04:38:17;;;;;;;20.08;4.57;;;;;;;;;;5031681;28;20502;-81
2023/10/24 04:40:43;;;;;;;17.52;4.00;;;;;;;;;;5028074;28;20037;-81
2023/10/24 04:43:09;;;;;;;14.60;3.88;;;;;;;;;;5031053;28;20036;-81
2023/10/24 04:45:38;;;;;;;16.77;3.85;;;;;;;;;;5026435;28;20062;-80
2023/10/24 04:48:04;;;;;;;21.90;4.18;;;;;;;;;;5027439;28;20033;-81
2023/10/24 04:50:30;;;;;;;19.30;3.58;;;;;;;;;;5029341;28;20028;-80
2023/10/24 04:52:56;;;;;;;19.42;4.80;;;;;;;;;;5029387;28;20072;-80
2023/10/24 04:55:22;;;;;;;15.75;3.58;;;;;;;;;;5000744;28;20073;-80
2023/10/24 04:57:48;;;;;;;12.98;3.65;;;;;;;;;;5018559;28;20092;-81
2023/10/24 05:00:13;;;;;;;19.58;3.72;;;;;;;;;;4999339;28;20041;-80
2023/10/24 05:02:40;;;;;;;14.18;4.00;;;;;;;;;;5027779;28;20018;-79
2023/10/24 05:05:06;;;;;;;8.98;3.42;;;;;;;;;;5004685;28;20037;-80
2023/10/24 05:07:31;;;;;;;16.25;3.80;;;;;;;;;;5011206;28;20056;-80
2023/10/24 05:09:56;;;;;;;13.45;4.15;;;;;;;;;;5000472;28;20112;-79
2023/10/24 05:12:22;;;;;;;16.08;4.70;;;;;;;;;;5007028;28;20641;-79
2023/10/24 05:14:47;;;;;;;12.25;3.72;;;;;;;;;;5012305;28;20457;-81
2023/10/24 05:17:14;;;;;;;17.75;3.85;;;;;;;;;;5014345;28;20046;-81
2023/10/24 05:19:40;;;;;;;16.83;3.50;;;;;;;;;;5004811;28;20060;-80
2023/10/24 05:22:05;;;;;;;27.13;3.65;;;;;;;;;;5009157;28;20039;-80
2023/10/24 05:24:30;;;;;;;15.95;3.88;;;;;;;;;;5005532;28;20116;-79
2023/10/24 05:26:56;;;;;;;11.80;4.05;;;;;;;;;;4992705;28;20034;-81
2023/10/24 05:29:21;;;;;;;19.65;4.32;;;;;;;;;;5021895;28;20132;-79
2023/10/24 05:31:46;;;;;;;25.42;4.45;;;;;;;;;;5025396;28;20053;-79
2023/10/24 05:34:12;;;;;;;20.75;3.35;;;;;;;;;;5023187;28;20069;-80
2023/10/24 05:36:37;;;;;;;20.23;3.33;;;;;;;;;;5012999;28;20038;-78
2023/10/24 05:39:02;;;;;;;18.02;3.00;;;;;;;;;;5036632;28;20030;-79
2023/10/24 05:41:28;;;;;;;17.70;3.28;;;;;;;;;;5024999;28;20137;-80
2023/10/24 05:43:53;;;;;;;18.30;4.00;;;;;;;;;;5020207;28;20037;-80
2023/10/24 05:46:18;;;;;;;20.65;4.72;;;;;;;;;;5000687;28;20029;-80
2023/10/24 05:48:44;;;;;;;25.77;5.57;;;;;;;;;;5024989;28;20048;-78
2023/10/24 05:51:12;;;;;;;26.10;4.00;;;;;;;;;;5019537;28;20028;-80
2023/10/24 05:53:37;;;;;;;14.55;2.50;;;;;;;;;;5016084;28;20018;-79
2023/10/24 05:56:03;;;;;;;22.55;3.03;;;;;;;;;;5017282;28;20087;-81
2023/10/24 05:58:28;;;;;;;25.10;3.08;;;;;;;;;;5019476;28;20045;-81
2023/10/24 06:00:53;;;;;;;23.85;3.13;;;;;;;;;;5032849;23;20106;-90
2023/10/24 06:03:19;;;;;;;25.88;4.65;;;;;;;;;;5039537;28;20014;-89
2023/10/24 06:05:45;;;;;;;27.45;3.30;;;;;;;;;;5051053;28;20017;-89
2023/10/24 06:08:11;;;;;;;24.02;3.97;;;;;;;;;;5048077;28;20040;-89
2023/10/24 06:10:37;;;;;;;24.52;3.95;;;;;;;;;;5051670;28;20029;-89
2023/10/24 06:13:02;;;;;;;28.95;3.47;;;;;;;;;;5044073;28;20444;-88
2023/10/24 06:15:28;;;;;;;26.92;3.17;;;;;;;;;;5046750;28;20033;-89
2023/10/24 06:17:55;;;;;;;19.65;3.13;;;;;;;;;;5058445;28;20029;-88
2023/10/24 06:20:20;;;;;;;18.58;3.40;;;;;;;;;;5050744;28;20037;-88
2023/10/24 06:22:46;;;;;;;22.05;2.75;;;;;;;;;;5058250;28;20070;-88
2023/10/24 06:25:11;;;;;;;24.77;2.90;;;;;;;;;;5058797;28;20085;-88
2023/10/24 06:27:37;;;;;;;18.98;2.95;;;;;;;;;;5057014;28;20029;-89
2023/10/24 06:30:03;;;;;;;31.95;3.13;;;;;;;;;;5056033;28;20020;-87
2023/10/24 06:32:28;;;;;;;27.20;2.92;;;;;;;;;;5045659;28;20013;-88
2023/10/24 06:34:53;;;;;;;15.10;3.05;;;;;;;;;;5051764;28;20091;-88
2023/10/24 06:37:19;;;;;;;12.82;2.65;;;;;;;;;;5051281;28;20029;-89
2023/10/24 06:39:44;;;;;;;22.70;2.67;;;;;;;;;;5047522;28;20029;-89
2023/10/24 06:42:09;;;;;;;17.70;2.30;;;;;;;;;;5047460;28;20028;-90
2023/10/24 06:44:35;;;;;;;20.35;3.17;;;;;;;;;;5044916;28;20013;-88
2023/10/24 06:47:00;;;;;;;24.52;2.88;;;;;;;;;;5045940;28;20526;-88
2023/10/24 06:49:25;;;;;;;16.27;3.33;;;;;;;;;;5048939;28;20415;-89
2023/10/24 06:51:51;;;;;;;11.05;2.35;;;;;;;;;;5046651;28;20488;-91
2023/10/24 06:54:16;;;;;;;24.55;3.60;;;;;;;;;;5044399;28;20563;-91
2023/10/24 06:56:41;;;;;;;20.60;3.28;;;;;;;;;;5046701;28;20029;-90
2023/10/24 06:59:07;;;;;;;42.90;5.05;;;;;;;;;;5046072;28;20041;-90
2023/10/24 07:01:32;;;;;;;55.88;5.28;;;;;;;;;;5043605;28;20192;-89
2023/10/24 07:03:57;;;;;;;39.58;4.30;;;;;;;;;;5043610;28;20034;-90
2023/10/24 07:06:23;;;;;;;24.13;3.03;;;;;;;;;;5040553;28;20486;-90
2023/10/24 07:08:48;;;;;;;22.63;3.00;;;;;;;;;;5038769;28;20084;-90
2023/10/24 07:11:14;;;;;;;24.20;2.53;;;;;;;;;;5041781;28;20103;-88
2023/10/24 07:13:39;;;;;;;18.77;2.75;;;;;;;;;;5037354;28;20041;-89
2023/10/24 07:16:13;;;;;;;14.18;2.40;;;;;;;;;;5035255;28;20085;-90
2023/10/24 07:18:38;;;;;;;16.30;2.72;;;;;;;;;;5036285;28;20095;-89
2023/10/24 07:21:04;;;;;;;14.70;2.63;;;;;;;;;;5037331;28;20029;-86
2023/10/24 07:23:30;;;;;;;18.08;2.70;;;;;;;;;;5038232;28;20434;-90
2023/10/24 07:26:00;;;;;;;26.17;3.60;;;;;;;;;;5044872;28;20056;-91
2023/10/24 07:28:28;;;;;;;25.38;2.55;;;;;;;;;;5048697;28;20052;-90
2023/10/24 07:30:54;;;;;;;23.15;3.35;;;;;;;;;;5041834;28;20044;-89
2023/10/24 07:33:20;;;;;;;20.33;3.88;;;;;;;;;;5037277;28;20025;-89
2023/10/24 07:35:48;;;;;;;12.07;3.33;;;;;;;;;;5042146;28;20029;-89
2023/10/24 07:38:13;;;;;;;26.25;3.22;;;;;;;;;;5043584;28;20099;-87
2023/10/24 07:40:39;;;;;;;15.45;3.10;;;;;;;;;;5047903;28;20025;-91
2023/10/24 07:43:04;;;;;;;29.30;2.47;;;;;;;;;;5052488;28;20041;-90
2023/10/24 07:45:30;;;;;;;18.00;2.83;;;;;;;;;;5050682;28;20061;-88
2023/10/24 07:47:55;;;;;;;19.67;3.13;;;;;;;;;;5059058;28;20029;-90
2023/10/24 07:50:21;;;;;;;17.10;2.38;;;;;;;;;;5051516;28;20106;-89
2023/10/24 07:52:46;;;;;;;15.82;2.83;;;;;;;;;;5045604;28;20129;-88
2023/10/24 07:55:11;;;;;;;16.67;2.65;;;;;;;;;;5048111;28;20040;-88
2023/10/24 07:57:37;;;;;;;27.60;2.50;;;;;;;;;;5047856;28;20044;-86
2023/10/24 08:00:03;;;;;;;21.92;3.35;;;;;;;;;;5051465;28;20033;-86
2023/10/24 08:02:28;;;;;;;10.45;2.08;;;;;;;;;;5056469;28;20049;-87
2023/10/24 08:04:53;;;;;;;15.45;2.53;;;;;;;;;;5048792;28;20101;-88
2023/10/24 08:07:19;;;;;;;13.27;2.75;;;;;;;;;;5045534;28;20411;-87
2023/10/24 08:09:58;;;;;;;23.45;2.83;;;;;;;;;;5042304;23;20582;-88
2023/10/24 08:12:35;;;;;;;26.65;3.15;;;;;;;;;;5009806;28;20045;-89
2023/10/24 08:15:26;;;;;;;12.38;2.28;;;;;;;;;;5020439;28;20029;-88
2023/10/24 08:17:56;;;;;;;16.55;2.45;;;;;;;;;;5022214;28;20128;-89
2023/10/24 08:20:31;;;;;;;20.40;2.83;;;;;;;;;;5010144;28;20065;-87
2023/10/24 08:22:56;;;;;;;27.85;4.22;;;;;;;;;;5002775;28;20222;-88
2023/10/24 08:25:24;;;;;;;14.60;2.35;;;;;;;;;;5007683;28;20512;-88
2023/10/24 08:27:50;;;;;;;29.70;2.97;;;;;;;;;;4969994;28;20042;-88
2023/10/24 08:30:18;;;;;;;14.35;2.33;;;;;;;;;;4996442;28;20048;-87
2023/10/24 08:32:46;;;;;;;16.05;2.28;;;;;;;;;;5006060;28;20029;-87
2023/10/24 08:35:14;;;;;;;11.77;2.45;;;;;;;;;;4995042;28;20073;-89
2023/10/24 08:37:43;;;;;;;21.13;2.45;;;;;;;;;;4992124;28;20042;-87
2023/10/24 08:40:21;;;;;;;;;;;;;;;;;;;;;
2023/10/24 08:42:52;;;;;;;15.60;2.25;;;;;;;;;;5012279;28;20037;-87
2023/10/24 08:45:21;;;;;;;20.75;3.65;;;;;;;;;;4994936;28;20053;-86
2023/10/24 08:47:56;;;;;;;20.15;4.60;;;;;;;;;;4985001;28;20026;-87
2023/10/24 08:53:32;;;;;;;10.93;2.63;;;;;;;;;;4988740;28;20447;-87
2023/10/24 08:56:23;;;;;;;14.38;2.90;;;;;;;;;;4992638;28;20092;-87
2023/10/24 08:59:00;;;;;;;19.02;2.78;;;;;;;;;;4989733;28;20519;-87
2023/10/24 09:01:27;;;;;;;17.52;3.08;;;;;;;;;;4998618;28;20132;-87
2023/10/24 09:04:02;;;;;;;14.50;3.05;;;;;;;;;;5005521;28;20063;-87
2023/10/24 09:06:36;;;;;;;15.35;2.88;;;;;;;;;;5004536;28;20500;-87
2023/10/24 09:09:02;;;;;;;15.25;3.65;;;;;;;;;;5006192;28;20033;-87
2023/10/24 09:11:56;;;;;;;11.63;2.67;;;;;;;;;;5008255;28;20055;-87
2023/10/24 09:14:23;;;;;;;17.35;2.88;;;;;;;;;;4999204;28;20050;-88
2023/10/24 09:17:08;;;;;;;14.05;3.45;;;;;;;;;;4999691;28;20510;-88
2023/10/24 09:19:58;;;;;;;23.70;3.15;;;;;;;;;;4999721;28;20034;-87
2023/10/24 09:22:49;;;;;;;13.30;2.70;;;;;;;;;;5000782;28;20095;-87
2023/10/24 09:25:28;;;;;;;17.58;3.08;;;;;;;;;;5009813;28;20053;-87
2023/10/24 09:28:12;;;;;;;11.60;3.25;;;;;;;;;;5003774;28;20120;-88
2023/10/24 09:30:39;;;;;;;20.90;4.00;;;;;;;;;;4993016;28;20120;-89
2023/10/24 09:33:07;;;;;;;19.80;3.22;;;;;;;;;;4995024;28;20050;-88
2023/10/24 09:35:32;;;;;;;18.42;3.28;;;;;;;;;;5004020;28;20033;-88
2023/10/24 09:38:09;;;;;;;24.02;3.30;;;;;;;;;;4996420;28;20054;-89
2023/10/24 09:41:00;;;;;;;19.67;3.50;;;;;;;;;;4995976;28;20046;-89
2023/10/24 09:47:04;;;;;;;11.98;3.08;;;;;;;;;;4975135;28;20042;-87
2023/10/24 09:50:39;;;;;;;;;;;;;;;;;;;;;
2023/10/24 09:53:03;;;;;;;22.95;3.85;;;;;;;;;;5019548;28;20030;-86
2023/10/24 09:55:48;;;;;;;15.93;2.97;;;;;;;;;;5018177;28;20105;-86
2023/10/24 09:58:41;;;;;;;13.52;3.00;;;;;;;;;;5012890;28;20049;-87
2023/10/24 10:01:10;;;;;;;8.43;2.33;;;;;;;;;;5008068;28;20042;-86
2023/10/24 10:03:39;;;;;;;11.73;3.08;;;;;;;;;;5008796;28;20030;-86
2023/10/24 10:06:16;;;;;;;9.98;2.13;;;;;;;;;;5003495;28;20026;-88
2023/10/24 10:08:49;;;;;;;17.02;2.78;;;;;;;;;;5008961;28;20034;-86
2023/10/24 10:11:15;;;;;;;17.98;2.60;;;;;;;;;;5005550;28;20128;-87
2023/10/24 10:13:53;;;;;;;9.82;2.50;;;;;;;;;;5005603;28;20437;-88
2023/10/24 10:16:40;;;;;;;13.57;2.65;;;;;;;;;;5000333;28;20038;-86
2023/10/24 10:19:37;;;;;;;9.98;2.30;;;;;;;;;;5003801;28;20037;-88
2023/10/24 10:22:42;;;;;;;23.45;2.88;;;;;;;;;;4996075;28;20048;-87
2023/10/24 10:25:49;;;;;;;21.85;2.70;;;;;;;;;;4992459;28;20432;-87
2023/10/24 10:28:46;;;;;;;14.80;2.47;;;;;;;;;;4997002;28;20136;-86
2023/10/24 10:31:54;;;;;;;11.80;2.75;;;;;;;;;;5007878;28;20034;-86
2023/10/24 10:38:08;;;;;;;18.63;2.67;;;;;;;;;;5015684;28;20037;-89
2023/10/24 10:40:40;;;;;;;14.45;2.85;;;;;;;;;;5013923;28;20049;-85
2023/10/24 10:43:29;;;;;;;17.08;2.58;;;;;;;;;;5015666;28;20037;-84
2023/10/24 10:46:31;;;;;;;9.93;2.60;;;;;;;;;;5006492;28;20027;-85
2023/10/24 10:49:07;;;;;;;14.85;2.70;;;;;;;;;;5019489;28;20029;-85
2023/10/24 10:51:44;;;;;;;13.63;3.47;;;;;;;;;;5014555;28;20022;-86
2023/10/24 10:54:52;;;;;;;22.90;2.97;;;;;;;;;;5017417;28;20046;-87
2023/10/24 10:57:27;;;;;;;21.08;2.75;;;;;;;;;;4995268;28;20038;-89
2023/10/24 11:00:03;;;;;;;14.88;4.30;;;;;;;;;;4992959;28;20010;-89
2023/10/24 11:03:00;;;;;;;40.25;10.48;;;;;;;;;;4990191;28;20432;-88
2023/10/24 11:05:35;;;;;;;23.85;7.65;;;;;;;;;;4974456;28;20615;-87
2023/10/24 11:08:07;;;;;;;22.83;10.02;;;;;;;;;;5007000;28;20080;-87
2023/10/24 11:10:54;;;;;;;19.67;6.07;;;;;;;;;;4996912;28;20040;-88
2023/10/24 11:13:40;;;;;;;15.45;4.70;;;;;;;;;;4991657;28;20045;-89
2023/10/24 11:16:07;;;;;;;10.52;4.45;;;;;;;;;;4993482;28;20143;-89
2023/10/24 11:18:34;;;;;;;16.00;4.28;;;;;;;;;;4994412;28;20045;-90
2023/10/24 11:21:07;;;;;;;12.88;4.15;;;;;;;;;;4989208;28;20038;-88
2023/10/24 11:23:41;;;;;;;17.45;4.10;;;;;;;;;;5000124;28;20070;-87
2023/10/24 11:26:07;;;;;;;15.02;4.47;;;;;;;;;;5014120;28;20566;-88
2023/10/24 11:28:33;;;;;;;19.70;5.93;;;;;;;;;;5015200;28;20041;-88
2023/10/24 11:31:18;;;;;;;15.27;5.68;;;;;;;;;;4996555;28;20061;-88
2023/10/24 11:33:44;;;;;;;16.10;4.38;;;;;;;;;;4992928;28;20497;-87
2023/10/24 11:36:10;;;;;;;12.32;4.70;;;;;;;;;;5008579;28;20121;-88
2023/10/24 11:38:35;;;;;;;12.85;5.53;;;;;;;;;;5007245;28;20451;-87
2023/10/24 11:41:00;;;;;;;17.85;8.65;;;;;;;;;;5006108;28;20634;-90
2023/10/24 11:43:28;;;;;;;17.10;8.63;;;;;;;;;;4996433;28;20110;-89
2023/10/24 11:45:55;;;;;;;13.13;6.20;;;;;;;;;;5004608;28;20046;-89
2023/10/24 11:48:20;;;;;;;19.85;6.43;;;;;;;;;;5007456;28;20037;-87
2023/10/24 11:50:46;;;;;;;18.52;6.22;;;;;;;;;;5004457;28;20176;-89
2023/10/24 11:53:19;;;;;;;13.38;5.40;;;;;;;;;;5009733;28;20247;-88
2023/10/24 11:55:44;;;;;;;21.85;6.85;;;;;;;;;;5005137;28;20038;-88
2023/10/24 11:58:11;;;;;;;16.52;5.97;;;;;;;;;;4997975;28;20041;-89
2023/10/24 12:00:37;;;;;;;16.50;7.30;;;;;;;;;;5002862;28;20048;-87
2023/10/24 12:03:04;;;;;;;18.52;7.00;;;;;;;;;;5008671;28;20262;-87
2023/10/24 12:05:31;;;;;;;15.45;6.85;;;;;;;;;;4994754;28;20026;-86
2023/10/24 12:07:57;;;;;;;16.95;7.65;;;;;;;;;;4998534;28;20041;-88
2023/10/24 12:10:22;;;;;;;13.98;6.97;;;;;;;;;;5005139;28;20042;-88
2023/10/24 12:12:47;;;;;;;12.45;6.63;;;;;;;;;;5008597;28;20540;-90
2023/10/24 12:15:16;;;;;;;12.40;7.05;;;;;;;;;;5004615;28;21053;-89
2023/10/24 12:17:45;;;;;;;13.18;8.13;;;;;;;;;;4999720;28;20088;-88
2023/10/24 12:20:11;;;;;;;14.38;7.32;;;;;;;;;;5008379;28;20165;-87
2023/10/24 12:22:37;;;;;;;12.40;6.72;;;;;;;;;;5003843;28;20038;-89
2023/10/24 12:25:02;;;;;;;18.05;7.63;;;;;;;;;;4998830;28;20053;-88
2023/10/24 12:27:28;;;;;;;11.50;6.70;;;;;;;;;;4995237;28;20118;-89
2023/10/24 12:29:53;;;;;;;16.70;7.32;;;;;;;;;;4999531;28;20433;-87
2023/10/24 12:32:18;;;;;;;18.98;8.10;;;;;;;;;;5005364;28;20031;-88
2023/10/24 12:34:44;;;;;;;11.27;7.40;;;;;;;;;;5000820;28;20038;-86
2023/10/24 12:37:09;;;;;;;14.15;7.32;;;;;;;;;;5002562;28;20045;-87
2023/10/24 12:39:34;;;;;;;18.90;7.60;;;;;;;;;;5000542;28;20042;-89
2023/10/24 12:42:00;;;;;;;14.05;7.35;;;;;;;;;;5002617;28;20100;-88
2023/10/24 12:44:25;;;;;;;15.90;7.18;;;;;;;;;;5006074;28;20034;-89
2023/10/24 12:46:50;;;;;;;15.80;7.93;;;;;;;;;;5005348;28;20052;-88
2023/10/24 12:49:16;;;;;;;18.45;7.70;;;;;;;;;;5002504;28;20045;-88
2023/10/24 12:51:43;;;;;;;16.00;7.63;;;;;;;;;;5022885;28;20573;-89
2023/10/24 12:54:08;;;;;;;15.40;7.88;;;;;;;;;;4992541;28;20030;-88
2023/10/24 12:56:36;;;;;;;14.27;8.68;;;;;;;;;;5012480;28;20038;-87
2023/10/24 12:59:02;;;;;;;17.60;8.57;;;;;;;;;;4993434;28;20153;-87
2023/10/24 13:01:29;;;;;;;14.98;8.43;;;;;;;;;;5002701;28;20042;-88
2023/10/24 13:03:56;;;;;;;11.15;8.45;;;;;;;;;;4996229;28;20049;-88
2023/10/24 13:06:22;;;;;;;9.32;7.13;;;;;;;;;;4991902;28;20848;-88
2023/10/24 13:08:48;;;;;;;19.83;8.00;;;;;;;;;;5001556;28;20092;-88
2023/10/24 13:11:13;;;;;;;15.50;8.82;;;;;;;;;;4999997;28;20048;-88
2023/10/24 13:13:39;;;;;;;11.85;8.00;;;;;;;;;;5006570;28;20101;-87
2023/10/24 13:16:06;;;;;;;15.13;8.60;;;;;;;;;;5000628;28;20144;-86
2023/10/24 13:18:31;;;;;;;24.42;9.20;;;;;;;;;;5004945;28;20133;-87
2023/10/24 13:20:57;;;;;;;13.57;8.85;;;;;;;;;;5008762;28;20034;-88
2023/10/24 13:23:23;;;;;;;13.38;9.35;;;;;;;;;;5005073;28;20452;-86
2023/10/24 13:25:49;;;;;;;16.17;9.75;;;;;;;;;;5009792;28;20072;-88
2023/10/24 13:28:15;;;;;;;20.20;9.50;;;;;;;;;;4988463;28;20181;-88
2023/10/24 13:30:40;;;;;;;15.23;9.43;;;;;;;;;;4997257;28;20543;-87
2023/10/24 13:33:06;;;;;;;15.93;9.70;;;;;;;;;;5000121;28;20052;-88
2023/10/24 13:35:31;;;;;;;12.43;9.10;;;;;;;;;;4995864;28;20526;-88
2023/10/24 13:37:57;;;;;;;16.83;9.55;;;;;;;;;;4993722;28;20513;-87
2023/10/24 13:40:26;;;;;;;13.00;8.68;;;;;;;;;;4996969;28;20050;-87
2023/10/24 13:42:51;;;;;;;11.48;8.15;;;;;;;;;;4997546;28;20045;-88
2023/10/24 13:45:17;;;;;;;11.38;8.65;;;;;;;;;;4993214;28;20030;-87
2023/10/24 13:47:42;;;;;;;16.00;8.30;;;;;;;;;;4996838;28;20105;-87
2023/10/24 13:50:08;;;;;;;16.15;8.63;;;;;;;;;;4997063;28;20038;-87
2023/10/24 13:52:35;;;;;;;12.48;9.07;;;;;;;;;;4992065;28;20110;-87
2023/10/24 13:55:00;;;;;;;10.15;7.55;;;;;;;;;;4989931;28;20101;-86
2023/10/24 13:57:26;;;;;;;9.77;7.47;;;;;;;;;;4974198;28;20081;-88
2023/10/24 13:59:51;;;;;;;14.30;9.05;;;;;;;;;;4993680;28;20606;-88
2023/10/24 14:02:19;;;;;;;13.18;9.35;;;;;;;;;;4991386;28;20046;-90
2023/10/24 14:04:44;;;;;;;10.20;7.88;;;;;;;;;;4973629;28;20071;-89
2023/10/24 14:07:11;;;;;;;15.20;11.88;;;;;;;;;;4992179;28;20535;-89
2023/10/24 14:09:37;;;;;;;11.18;8.15;;;;;;;;;;5035527;23;20073;-81
2023/10/24 14:12:04;;;;;;;11.60;8.55;;;;;;;;;;5050165;28;20424;-81
2023/10/24 14:14:29;;;;;;;14.30;10.38;;;;;;;;;;5039717;28;20049;-81
2023/10/24 14:16:55;;;;;;;20.95;13.40;;;;;;;;;;5046857;28;20072;-81
2023/10/24 14:19:20;;;;;;;8.60;6.30;;;;;;;;;;5052219;28;20420;-81
2023/10/24 14:21:45;;;;;;;14.32;7.88;;;;;;;;;;5036744;28;20030;-81
2023/10/24 14:24:11;;;;;;;8.13;5.13;;;;;;;;;;5043377;28;20427;-81
2023/10/24 14:26:36;;;;;;;4.65;3.28;;;;;;;;;;5033405;28;20022;-79
2023/10/24 14:29:01;;;;;;;3.63;3.30;;;;;;;;;;5052767;28;20029;-79
2023/10/24 14:31:27;;;;;;;5.20;3.83;;;;;;;;;;5055064;28;20396;-79
2023/10/24 14:33:52;;;;;;;8.75;5.97;;;;;;;;;;5056007;28;20064;-79
2023/10/24 14:36:17;;;;;;;4.93;3.28;;;;;;;;;;5055665;28;20028;-78
2023/10/24 14:38:42;;;;;;;4.82;3.97;;;;;;;;;;5056253;28;20113;-79
2023/10/24 14:41:08;;;;;;;7.35;3.70;;;;;;;;;;5055570;28;20043;-79
2023/10/24 14:43:35;;;;;;;4.65;3.97;;;;;;;;;;5053501;28;20024;-78
2023/10/24 14:46:00;;;;;;;6.78;4.65;;;;;;;;;;5051135;28;20508;-78
2023/10/24 14:48:25;;;;;;;16.45;12.02;;;;;;;;;;5052107;28;20040;-78
2023/10/24 14:50:50;;;;;;;6.47;5.60;;;;;;;;;;5053070;28;20028;-78